sensor_id;sensor_type;location;lat;lon;timestamp;pressure;altitude;pressure_sealevel;temperature;humidity
56671;BME280;42545;50.054;8.306;2023-04-07T00:00:46;99968.38;;;5.79;100.00
56671;BME280;42545;50.054;8.306;2023-04-07T00:03:13;99966.66;;;5.80;100.00
56671;BME280;42545;50.054;8.306;2023-04-07T00:05:40;99962.28;;;5.80;100.00
56671;BME280;42545;50.054;8.306;2023-04-07T00:08:06;99967.53;;;5.80;100.00
56671;BME280;42545;50.054;8.306;2023-04-07T00:10:33;99956.97;;;5.77;100.00
56671;BME280;42545;50.054;8.306;2023-04-07T00:13:01;99972.00;;;5.83;100.00
56671;BME280;42545;50.054;8.306;2023-04-07T00:15:28;99966.69;;;5.81;100.00
56671;BME280;42545;50.054;8.306;2023-04-07T00:17:55;99962.28;;;5.80;100.00
56671;BME280;42545;50.054;8.306;2023-04-07T00:20:22;99958.84;;;5.81;100.00
56671;BME280;42545;50.054;8.306;2023-04-07T00:22:48;99952.72;;;5.81;100.00
56671;BME280;42545;50.054;8.306;2023-04-07T00:25:15;99950.13;;;5.81;100.00
56671;BME280;42545;50.054;8.306;2023-04-07T00:27:42;99946.63;;;5.82;100.00
56671;BME280;42545;50.054;8.306;2023-04-07T00:30:11;99943.19;;;5.83;100.00
56671;BME280;42545;50.054;8.306;2023-04-07T00:32:39;99940.56;;;5.83;100.00
56671;BME280;42545;50.054;8.306;2023-04-07T00:35:06;99936.16;;;5.82;100.00
56671;BME280;42545;50.054;8.306;2023-04-07T00:37:33;99941.47;;;5.83;100.00
56671;BME280;42545;50.054;8.306;2023-04-07T00:40:00;99936.16;;;5.82;100.00
56671;BME280;42545;50.054;8.306;2023-04-07T00:42:26;99928.31;;;5.82;100.00
56671;BME280;42545;50.054;8.306;2023-04-07T00:44:53;99928.38;;;5.83;100.00
56671;BME280;42545;50.054;8.306;2023-04-07T00:47:21;99926.56;;;5.82;100.00
56671;BME280;42545;50.054;8.306;2023-04-07T00:49:47;99921.34;;;5.82;100.00
56671;BME280;42545;50.054;8.306;2023-04-07T00:52:14;99916.06;;;5.81;100.00
56671;BME280;42545;50.054;8.306;2023-04-07T00:54:41;99914.38;;;5.83;100.00
56671;BME280;42545;50.054;8.306;2023-04-07T00:57:08;99917.00;;;5.83;100.00
56671;BME280;42545;50.054;8.306;2023-04-07T00:59:37;99910.03;;;5.83;100.00
56671;BME280;42545;50.054;8.306;2023-04-07T01:02:09;99911.78;;;5.83;100.00
56671;BME280;42545;50.054;8.306;2023-04-07T01:04:43;99902.97;;;5.81;100.00
56671;BME280;42545;50.054;8.306;2023-04-07T01:07:16;99900.44;;;5.84;100.00
56671;BME280;42545;50.054;8.306;2023-04-07T01:09:46;99897.00;;;5.85;100.00
56671;BME280;42545;50.054;8.306;2023-04-07T01:12:18;99896.13;;;5.84;100.00
56671;BME280;42545;50.054;8.306;2023-04-07T01:14:50;99888.25;;;5.84;100.00
56671;BME280;42545;50.054;8.306;2023-04-07T01:17:20;99891.72;;;5.83;100.00
56671;BME280;42545;50.054;8.306;2023-04-07T01:19:55;99885.59;;;5.83;100.00
56671;BME280;42545;50.054;8.306;2023-04-07T01:22:27;99880.28;;;5.81;100.00
56671;BME280;42545;50.054;8.306;2023-04-07T01:25:21;99888.97;;;5.80;100.00
56671;BME280;42545;50.054;8.306;2023-04-07T01:27:57;99883.69;;;5.78;100.00
56671;BME280;42545;50.054;8.306;2023-04-07T01:30:30;99874.13;;;5.79;100.00
56671;BME280;42545;50.054;8.306;2023-04-07T01:32:59;99869.66;;;5.76;100.00
56671;BME280;42545;50.054;8.306;2023-04-07T01:35:28;99877.56;;;5.78;100.00
56671;BME280;42545;50.054;8.306;2023-04-07T01:37:56;99873.09;;;5.74;100.00
56671;BME280;42545;50.054;8.306;2023-04-07T01:40:25;99870.41;;;5.72;100.00
56671;BME280;42545;50.054;8.306;2023-04-07T01:42:53;99871.25;;;5.71;100.00
56671;BME280;42545;50.054;8.306;2023-04-07T01:45:22;99869.47;;;5.70;100.00
56671;BME280;42545;50.054;8.306;2023-04-07T01:47:52;99866.84;;;5.70;100.00
56671;BME280;42545;50.054;8.306;2023-04-07T01:50:21;99860.78;;;5.71;100.00
56671;BME280;42545;50.054;8.306;2023-04-07T01:52:48;99866.03;;;5.71;100.00
56671;BME280;42545;50.054;8.306;2023-04-07T01:55:15;99870.41;;;5.72;100.00
56671;BME280;42545;50.054;8.306;2023-04-07T01:57:42;99867.03;;;5.75;100.00
56671;BME280;42545;50.054;8.306;2023-04-07T02:00:10;99858.25;;;5.74;100.00
56671;BME280;42545;50.054;8.306;2023-04-07T02:02:40;99867.03;;;5.75;100.00
56671;BME280;42545;50.054;8.306;2023-04-07T02:05:12;99854.81;;;5.75;100.00
56671;BME280;42545;50.054;8.306;2023-04-07T02:07:44;99853.06;;;5.76;100.00
56671;BME280;42545;50.054;8.306;2023-04-07T02:10:14;99860.09;;;5.77;100.00
56671;BME280;42545;50.054;8.306;2023-04-07T02:12:44;99860.94;;;5.76;100.00
56671;BME280;42545;50.054;8.306;2023-04-07T02:15:12;99855.69;;;5.76;100.00
56671;BME280;42545;50.054;8.306;2023-04-07T02:17:43;99857.44;;;5.75;100.00
56671;BME280;42545;50.054;8.306;2023-04-07T02:20:13;99849.56;;;5.75;100.00
56671;BME280;42545;50.054;8.306;2023-04-07T02:22:41;99846.97;;;5.75;100.00
56671;BME280;42545;50.054;8.306;2023-04-07T02:25:23;99846.06;;;5.75;100.00
56671;BME280;42545;50.054;8.306;2023-04-07T02:27:49;99845.16;;;5.74;100.00
56671;BME280;42545;50.054;8.306;2023-04-07T02:30:16;99843.41;;;5.73;100.00
56671;BME280;42545;50.054;8.306;2023-04-07T02:32:43;99850.44;;;5.76;100.00
56671;BME280;42545;50.054;8.306;2023-04-07T02:35:10;99840.78;;;5.73;100.00
56671;BME280;42545;50.054;8.306;2023-04-07T02:37:38;99842.59;;;5.76;100.00
56671;BME280;42545;50.054;8.306;2023-04-07T02:40:05;99844.22;;;5.72;100.00
56671;BME280;42545;50.054;8.306;2023-04-07T02:42:32;99842.59;;;5.76;100.00
56671;BME280;42545;50.054;8.306;2023-04-07T02:44:59;99835.59;;;5.75;100.00
56671;BME280;42545;50.054;8.306;2023-04-07T02:47:26;99841.72;;;5.75;100.00
56671;BME280;42545;50.054;8.306;2023-04-07T02:49:53;99841.72;;;5.75;100.00
56671;BME280;42545;50.054;8.306;2023-04-07T02:52:19;99834.75;;;5.76;100.00
56671;BME280;42545;50.054;8.306;2023-04-07T02:54:48;99836.47;;;5.75;100.00
56671;BME280;42545;50.054;8.306;2023-04-07T02:57:14;99832.94;;;5.73;100.00
56671;BME280;42545;50.054;8.306;2023-04-07T02:59:42;99836.31;;;5.71;100.00
56671;BME280;42545;50.054;8.306;2023-04-07T03:02:09;99834.69;;;5.74;100.00
56671;BME280;42545;50.054;8.306;2023-04-07T03:04:36;99839.03;;;5.74;100.00
56671;BME280;42545;50.054;8.306;2023-04-07T03:07:02;99828.47;;;5.71;100.00
56671;BME280;42545;50.054;8.306;2023-04-07T03:09:29;99836.25;;;5.69;100.00
56671;BME280;42545;50.054;8.306;2023-04-07T03:11:57;99826.59;;;5.67;100.00
56671;BME280;42545;50.054;8.306;2023-04-07T03:14:24;99826.66;;;5.68;100.00
56671;BME280;42545;50.054;8.306;2023-04-07T03:16:51;99825.78;;;5.69;100.00
56671;BME280;42545;50.054;8.306;2023-04-07T03:19:17;99822.28;;;5.69;100.00
56671;BME280;42545;50.054;8.306;2023-04-07T03:21:44;99829.31;;;5.70;100.00
56671;BME280;42545;50.054;8.306;2023-04-07T03:24:11;99824.03;;;5.68;100.00
56671;BME280;42545;50.054;8.306;2023-04-07T03:26:38;99813.56;;;5.68;100.00
56671;BME280;42545;50.054;8.306;2023-04-07T03:29:06;99822.28;;;5.69;100.00
56671;BME280;42545;50.054;8.306;2023-04-07T03:31:33;99818.75;;;5.67;100.00
56671;BME280;42545;50.054;8.306;2023-04-07T03:34:01;99817.91;;;5.68;100.00
56671;BME280;42545;50.054;8.306;2023-04-07T03:36:28;99821.34;;;5.67;100.00
56671;BME280;42545;50.054;8.306;2023-04-07T03:38:55;99825.78;;;5.68;100.00
56671;BME280;42545;50.054;8.306;2023-04-07T03:41:22;99817.00;;;5.67;100.00
56671;BME280;42545;50.054;8.306;2023-04-07T03:43:50;99819.63;;;5.67;100.00
56671;BME280;42545;50.054;8.306;2023-04-07T03:46:19;99819.63;;;5.67;100.00
56671;BME280;42545;50.054;8.306;2023-04-07T03:48:46;99816.06;;;5.65;100.00
56671;BME280;42545;50.054;8.306;2023-04-07T03:51:13;99823.16;;;5.68;100.00
56671;BME280;42545;50.054;8.306;2023-04-07T03:53:40;99807.44;;;5.68;100.00
56671;BME280;42545;50.054;8.306;2023-04-07T03:56:07;99821.41;;;5.68;100.00
56671;BME280;42545;50.054;8.306;2023-04-07T03:58:33;99813.56;;;5.68;100.00
56671;BME280;42545;50.054;8.306;2023-04-07T04:01:00;99805.66;;;5.67;100.00
56671;BME280;42545;50.054;8.306;2023-04-07T04:03:28;99813.50;;;5.67;100.00
56671;BME280;42545;50.054;8.306;2023-04-07T04:05:55;99816.94;;;5.66;100.00
56671;BME280;42545;50.054;8.306;2023-04-07T04:08:21;99803.03;;;5.67;100.00
56671;BME280;42545;50.054;8.306;2023-04-07T04:10:48;99803.88;;;5.66;100.00
56671;BME280;42545;50.054;8.306;2023-04-07T04:13:14;99811.72;;;5.66;100.00
56671;BME280;42545;50.054;8.306;2023-04-07T04:15:41;99798.63;;;5.66;100.00
56671;BME280;42545;50.054;8.306;2023-04-07T04:18:08;99810.00;;;5.66;100.00
56671;BME280;42545;50.054;8.306;2023-04-07T04:20:36;99813.50;;;5.67;100.00
56671;BME280;42545;50.054;8.306;2023-04-07T04:23:03;99800.38;;;5.65;100.00
56671;BME280;42545;50.054;8.306;2023-04-07T04:25:29;99802.97;;;5.65;100.00
56671;BME280;42545;50.054;8.306;2023-04-07T04:27:56;99806.47;;;5.64;100.00
56671;BME280;42545;50.054;8.306;2023-04-07T04:30:22;99804.66;;;5.63;100.00
56671;BME280;42545;50.054;8.306;2023-04-07T04:32:49;99801.22;;;5.64;100.00
56671;BME280;42545;50.054;8.306;2023-04-07T04:35:16;99798.59;;;5.64;100.00
56671;BME280;42545;50.054;8.306;2023-04-07T04:37:45;99803.88;;;5.66;100.00
56671;BME280;42545;50.054;8.306;2023-04-07T04:40:12;99807.22;;;5.62;100.00
56671;BME280;42545;50.054;8.306;2023-04-07T04:42:39;99803.88;;;5.66;100.00
56671;BME280;42545;50.054;8.306;2023-04-07T04:45:07;99813.50;;;5.67;100.00
56671;BME280;42545;50.054;8.306;2023-04-07T04:47:34;99813.47;;;5.65;100.00
56671;BME280;42545;50.054;8.306;2023-04-07T04:50:03;99817.88;;;5.66;100.00
56671;BME280;42545;50.054;8.306;2023-04-07T04:52:30;99812.63;;;5.66;100.00
56671;BME280;42545;50.054;8.306;2023-04-07T04:54:58;99813.50;;;5.67;100.00
56671;BME280;42545;50.054;8.306;2023-04-07T04:57:25;99809.09;;;5.66;100.00
56671;BME280;42545;50.054;8.306;2023-04-07T04:59:51;99817.00;;;5.67;100.00
56671;BME280;42545;50.054;8.306;2023-04-07T05:02:18;99818.81;;;5.68;100.00
56671;BME280;42545;50.054;8.306;2023-04-07T05:04:44;99818.81;;;5.68;100.00
56671;BME280;42545;50.054;8.306;2023-04-07T05:07:11;99829.28;;;5.68;100.00
56671;BME280;42545;50.054;8.306;2023-04-07T05:09:38;99828.38;;;5.68;100.00
56671;BME280;42545;50.054;8.306;2023-04-07T05:12:06;99831.88;;;5.68;100.00
56671;BME280;42545;50.054;8.306;2023-04-07T05:14:33;99830.09;;;5.67;100.00
56671;BME280;42545;50.054;8.306;2023-04-07T05:17:00;99827.47;;;5.67;100.00
56671;BME280;42545;50.054;8.306;2023-04-07T05:19:26;99825.72;;;5.66;100.00
56671;BME280;42545;50.054;8.306;2023-04-07T05:21:54;99827.53;;;5.69;100.00
56671;BME280;42545;50.054;8.306;2023-04-07T05:24:20;99829.31;;;5.70;100.00
56671;BME280;42545;50.054;8.306;2023-04-07T05:26:47;99817.88;;;5.66;100.00
56671;BME280;42545;50.054;8.306;2023-04-07T05:29:15;99829.38;;;5.71;100.00
56671;BME280;42545;50.054;8.306;2023-04-07T05:31:42;99823.28;;;5.72;100.00
56671;BME280;42545;50.054;8.306;2023-04-07T05:34:08;99813.66;;;5.71;100.00
56671;BME280;42545;50.054;8.306;2023-04-07T05:36:35;99820.66;;;5.72;100.00
56671;BME280;42545;50.054;8.306;2023-04-07T05:39:01;99816.31;;;5.73;100.00
56671;BME280;42545;50.054;8.306;2023-04-07T05:41:28;99822.41;;;5.72;100.00
56671;BME280;42545;50.054;8.306;2023-04-07T05:43:55;99814.66;;;5.75;100.00
56671;BME280;42545;50.054;8.306;2023-04-07T05:46:23;99822.59;;;5.78;100.00
56671;BME280;42545;50.054;8.306;2023-04-07T05:48:50;99818.22;;;5.78;100.00
56671;BME280;42545;50.054;8.306;2023-04-07T05:51:17;99816.53;;;5.79;100.00
56671;BME280;42545;50.054;8.306;2023-04-07T05:53:43;99815.66;;;5.80;100.00
56671;BME280;42545;50.054;8.306;2023-04-07T05:56:10;99820.03;;;5.80;100.00
56671;BME280;42545;50.054;8.306;2023-04-07T05:58:37;99817.47;;;5.81;100.00
56671;BME280;42545;50.054;8.306;2023-04-07T06:01:03;99813.00;;;5.78;100.00
56671;BME280;42545;50.054;8.306;2023-04-07T06:03:31;99821.81;;;5.81;100.00
56671;BME280;42545;50.054;8.306;2023-04-07T06:05:58;99822.59;;;5.78;100.00
56671;BME280;42545;50.054;8.306;2023-04-07T06:08:25;99821.00;;;5.83;100.00
56671;BME280;42545;50.054;8.306;2023-04-07T06:10:51;99829.75;;;5.84;100.00
56671;BME280;42545;50.054;8.306;2023-04-07T06:13:18;99819.28;;;5.84;100.00
56671;BME280;42545;50.054;8.306;2023-04-07T06:15:45;99821.94;;;5.85;100.00
56671;BME280;42545;50.054;8.306;2023-04-07T06:18:13;99829.81;;;5.85;100.00
56671;BME280;42545;50.054;8.306;2023-04-07T06:20:41;99831.59;;;5.86;100.00
56671;BME280;42545;50.054;8.306;2023-04-07T06:23:08;99828.97;;;5.86;100.00
56671;BME280;42545;50.054;8.306;2023-04-07T06:25:34;99829.09;;;5.91;100.00
56671;BME280;42545;50.054;8.306;2023-04-07T06:28:02;99835.28;;;5.93;100.00
56671;BME280;42545;50.054;8.306;2023-04-07T06:30:29;99818.44;;;5.85;100.00
56671;BME280;42545;50.054;8.306;2023-04-07T06:32:56;99826.59;;;5.94;100.00
56671;BME280;42545;50.054;8.306;2023-04-07T06:35:23;99829.22;;;5.94;100.00
56671;BME280;42545;50.054;8.306;2023-04-07T06:37:52;99832.78;;;5.96;100.00
56671;BME280;42545;50.054;8.306;2023-04-07T06:40:18;99825.81;;;5.96;100.00
56671;BME280;42545;50.054;8.306;2023-04-07T06:42:45;99834.66;;;6.00;100.00
56671;BME280;42545;50.054;8.306;2023-04-07T06:45:12;99836.50;;;6.03;100.00
56671;BME280;42545;50.054;8.306;2023-04-07T06:47:39;99831.25;;;6.03;100.00
56671;BME280;42545;50.054;8.306;2023-04-07T06:50:06;99840.94;;;6.05;100.00
56671;BME280;42545;50.054;8.306;2023-04-07T06:52:33;99836.63;;;6.07;100.00
56671;BME280;42545;50.054;8.306;2023-04-07T06:55:01;99833.22;;;6.10;100.00
56671;BME280;42545;50.054;8.306;2023-04-07T06:57:27;99832.47;;;6.14;100.00
56671;BME280;42545;50.054;8.306;2023-04-07T06:59:54;99838.69;;;6.18;100.00
56671;BME280;42545;50.054;8.306;2023-04-07T07:02:21;99834.38;;;6.20;100.00
56671;BME280;42545;50.054;8.306;2023-04-07T07:04:48;99834.44;;;6.21;100.00
56671;BME280;42545;50.054;8.306;2023-04-07T07:07:15;99839.69;;;6.21;100.00
56671;BME280;42545;50.054;8.306;2023-04-07T07:09:42;99839.72;;;6.23;100.00
56671;BME280;42545;50.054;8.306;2023-04-07T07:12:09;99840.63;;;6.23;100.00
56671;BME280;42545;50.054;8.306;2023-04-07T07:14:36;99839.78;;;6.24;100.00
56671;BME280;42545;50.054;8.306;2023-04-07T07:17:03;99836.31;;;6.25;100.00
56671;BME280;42545;50.054;8.306;2023-04-07T07:19:29;99845.25;;;6.32;100.00
56671;BME280;42545;50.054;8.306;2023-04-07T07:21:56;99847.00;;;6.33;100.00
56671;BME280;42545;50.054;8.306;2023-04-07T07:24:22;99844.38;;;6.33;100.00
56671;BME280;42545;50.054;8.306;2023-04-07T07:26:49;99846.13;;;6.32;100.00
56671;BME280;42545;50.054;8.306;2023-04-07T07:29:17;99846.19;;;6.34;100.00
56671;BME280;42545;50.054;8.306;2023-04-07T07:31:44;99839.06;;;6.30;100.00
56671;BME280;42545;50.054;8.306;2023-04-07T07:34:10;99847.06;;;6.34;100.00
56671;BME280;42545;50.054;8.306;2023-04-07T07:36:37;99850.59;;;6.37;100.00
56671;BME280;42545;50.054;8.306;2023-04-07T07:39:03;99855.06;;;6.39;100.00
56671;BME280;42545;50.054;8.306;2023-04-07T07:41:30;99849.91;;;6.42;100.00
56671;BME280;42545;50.054;8.306;2023-04-07T07:43:56;99855.19;;;6.44;100.00
56671;BME280;42545;50.054;8.306;2023-04-07T07:46:25;99846.50;;;6.45;100.00
56671;BME280;42545;50.054;8.306;2023-04-07T07:48:52;99857.03;;;6.46;100.00
56671;BME280;42545;50.054;8.306;2023-04-07T07:51:19;99863.22;;;6.48;100.00
56671;BME280;42545;50.054;8.306;2023-04-07T07:53:46;99856.28;;;6.50;100.00
56671;BME280;42545;50.054;8.306;2023-04-07T07:56:12;99867.75;;;6.54;100.00
56671;BME280;42545;50.054;8.306;2023-04-07T07:58:39;99865.94;;;6.53;100.00
56671;BME280;42545;50.054;8.306;2023-04-07T08:01:06;99866.88;;;6.53;100.00
56671;BME280;42545;50.054;8.306;2023-04-07T08:03:34;99867.78;;;6.56;100.00
56671;BME280;42545;50.054;8.306;2023-04-07T08:06:01;99866.94;;;6.57;100.00
56671;BME280;42545;50.054;8.306;2023-04-07T08:08:28;99869.50;;;6.55;100.00
56671;BME280;42545;50.054;8.306;2023-04-07T08:10:54;99867.84;;;6.59;100.00
56671;BME280;42545;50.054;8.306;2023-04-07T08:13:21;99872.38;;;6.64;100.00
56671;BME280;42545;50.054;8.306;2023-04-07T08:15:48;99875.16;;;6.69;100.00
56671;BME280;42545;50.054;8.306;2023-04-07T08:18:14;99871.88;;;6.76;100.00
56671;BME280;42545;50.054;8.306;2023-04-07T08:20:42;99884.22;;;6.80;100.00
56671;BME280;42545;50.054;8.306;2023-04-07T08:23:09;99880.81;;;6.83;100.00
56671;BME280;42545;50.054;8.306;2023-04-07T08:25:37;99887.06;;;6.88;100.00
56671;BME280;42545;50.054;8.306;2023-04-07T08:28:05;99879.38;;;6.94;100.00
56671;BME280;42545;50.054;8.306;2023-04-07T08:30:31;99866.31;;;6.96;100.00
56671;BME280;42545;50.054;8.306;2023-04-07T08:32:58;99885.03;;;7.09;100.00
56671;BME280;42545;50.054;8.306;2023-04-07T08:35:25;99885.19;;;7.14;100.00
56671;BME280;42545;50.054;8.306;2023-04-07T08:37:53;99886.19;;;7.19;100.00
56671;BME280;42545;50.054;8.306;2023-04-07T08:40:19;99880.19;;;7.23;100.00
56671;BME280;42545;50.054;8.306;2023-04-07T08:42:47;99882.03;;;7.27;100.00
56671;BME280;42545;50.054;8.306;2023-04-07T08:45:16;99870.50;;;7.22;100.00
56671;BME280;42545;50.054;8.306;2023-04-07T08:47:43;99886.56;;;7.33;100.00
56671;BME280;42545;50.054;8.306;2023-04-07T08:50:15;99883.94;;;7.33;100.00
56671;BME280;42545;50.054;8.306;2023-04-07T08:52:44;99888.34;;;7.34;100.00
56671;BME280;42545;50.054;8.306;2023-04-07T08:55:13;99891.06;;;7.39;100.00
56671;BME280;42545;50.054;8.306;2023-04-07T08:57:41;99886.00;;;7.45;100.00
56671;BME280;42545;50.054;8.306;2023-04-07T09:00:09;99886.00;;;7.45;100.00
56671;BME280;42545;50.054;8.306;2023-04-07T09:02:39;99896.50;;;7.45;100.00
56671;BME280;42545;50.054;8.306;2023-04-07T09:05:08;99893.84;;;7.43;100.00
56671;BME280;42545;50.054;8.306;2023-04-07T09:07:37;99896.41;;;7.42;100.00
56671;BME280;42545;50.054;8.306;2023-04-07T09:10:05;99902.44;;;7.38;100.00
56671;BME280;42545;50.054;8.306;2023-04-07T09:12:33;99904.03;;;7.32;100.00
56671;BME280;42545;50.054;8.306;2023-04-07T09:15:00;99891.72;;;7.30;100.00
56671;BME280;42545;50.054;8.306;2023-04-07T09:17:28;99898.78;;;7.32;100.00
56671;BME280;42545;50.054;8.306;2023-04-07T09:19:55;99894.28;;;7.27;100.00
56671;BME280;42545;50.054;8.306;2023-04-07T09:22:37;99902.34;;;7.35;100.00
56671;BME280;42545;50.054;8.306;2023-04-07T09:25:15;99911.06;;;7.34;100.00
56671;BME280;42545;50.054;8.306;2023-04-07T09:28:01;99899.81;;;7.38;100.00
56671;BME280;42545;50.054;8.306;2023-04-07T09:30:31;99898.25;;;7.46;100.00
56671;BME280;42545;50.054;8.306;2023-04-07T09:32:59;99901.13;;;7.55;100.00
56671;BME280;42545;50.054;8.306;2023-04-07T09:35:26;99908.13;;;7.55;100.00
56671;BME280;42545;50.054;8.306;2023-04-07T09:38:01;99903.78;;;7.57;100.00
56671;BME280;42545;50.054;8.306;2023-04-07T09:40:29;99896.94;;;7.62;100.00
56671;BME280;42545;50.054;8.306;2023-04-07T09:42:56;99905.88;;;7.68;100.00
56671;BME280;42545;50.054;8.306;2023-04-07T09:45:26;99896.28;;;7.70;100.00
56671;BME280;42545;50.054;8.306;2023-04-07T09:47:53;99905.91;;;7.72;100.00
56671;BME280;42545;50.054;8.306;2023-04-07T09:50:30;99905.88;;;7.70;100.00
56671;BME280;42545;50.054;8.306;2023-04-07T09:52:59;99912.88;;;7.69;100.00
56671;BME280;42545;50.054;8.306;2023-04-07T09:55:27;99909.31;;;7.67;100.00
56671;BME280;42545;50.054;8.306;2023-04-07T09:57:54;99911.19;;;7.72;100.00
56671;BME280;42545;50.054;8.306;2023-04-07T10:00:21;99911.22;;;7.73;100.00
56671;BME280;42545;50.054;8.306;2023-04-07T10:02:50;99913.03;;;7.76;100.00
56671;BME280;42545;50.054;8.306;2023-04-07T10:05:17;99915.59;;;7.73;100.00
56671;BME280;42545;50.054;8.306;2023-04-07T10:07:47;99916.44;;;7.72;100.00
56671;BME280;42545;50.054;8.306;2023-04-07T10:10:13;99917.28;;;7.70;100.00
56671;BME280;42545;50.054;8.306;2023-04-07T10:12:41;99920.88;;;7.74;100.00
56671;BME280;42545;50.054;8.306;2023-04-07T10:15:11;99927.84;;;7.72;100.00
56671;BME280;42545;50.054;8.306;2023-04-07T10:17:38;99928.69;;;7.71;100.00
56671;BME280;42545;50.054;8.306;2023-04-07T10:20:09;99925.22;;;7.72;100.00
56671;BME280;42545;50.054;8.306;2023-04-07T10:22:36;99924.53;;;7.81;100.00
56671;BME280;42545;50.054;8.306;2023-04-07T10:25:05;99921.22;;;7.88;100.00
56671;BME280;42545;50.054;8.306;2023-04-07T10:27:38;99919.66;;;7.95;100.00
56671;BME280;42545;50.054;8.306;2023-04-07T10:30:17;99919.81;;;8.02;100.00
56671;BME280;42545;50.054;8.306;2023-04-07T10:32:45;99921.78;;;8.11;100.00
56671;BME280;42545;50.054;8.306;2023-04-07T10:35:14;99934.22;;;8.18;100.00
56671;BME280;42545;50.054;8.306;2023-04-07T10:38:08;99936.91;;;8.20;100.00
56671;BME280;42545;50.054;8.306;2023-04-07T10:40:38;99929.94;;;8.22;100.00
56671;BME280;42545;50.054;8.306;2023-04-07T10:43:06;99934.31;;;8.23;100.00
56671;BME280;42545;50.054;8.306;2023-04-07T10:45:51;99929.91;;;8.20;100.00
56671;BME280;42545;50.054;8.306;2023-04-07T10:48:21;99943.00;;;8.19;100.00
56671;BME280;42545;50.054;8.306;2023-04-07T10:51:17;99941.25;;;8.19;100.00
56671;BME280;42545;50.054;8.306;2023-04-07T10:54:14;99943.88;;;8.18;100.00
56671;BME280;42545;50.054;8.306;2023-04-07T10:57:04;99944.78;;;8.20;100.00
56671;BME280;42545;50.054;8.306;2023-04-07T10:59:32;99935.97;;;8.18;100.00
56671;BME280;42545;50.054;8.306;2023-04-07T11:02:29;99940.44;;;8.22;100.00
56671;BME280;42545;50.054;8.306;2023-04-07T11:04:56;99943.97;;;8.22;100.00
56671;BME280;42545;50.054;8.306;2023-04-07T11:07:43;99951.00;;;8.23;100.00
56671;BME280;42545;50.054;8.306;2023-04-07T11:10:11;99947.47;;;8.21;100.00
56671;BME280;42545;50.054;8.306;2023-04-07T11:12:40;99950.09;;;8.21;100.00
56671;BME280;42545;50.054;8.306;2023-04-07T11:15:17;99944.84;;;8.21;100.00
56671;BME280;42545;50.054;8.306;2023-04-07T11:17:43;99945.75;;;8.23;100.00
56671;BME280;42545;50.054;8.306;2023-04-07T11:20:10;99949.34;;;8.27;100.00
56671;BME280;42545;50.054;8.306;2023-04-07T11:22:38;99953.81;;;8.31;100.00
56671;BME280;42545;50.054;8.306;2023-04-07T11:25:19;99950.47;;;8.38;100.00
56671;BME280;42545;50.054;8.306;2023-04-07T11:27:47;99942.75;;;8.44;100.00
56671;BME280;42545;50.054;8.306;2023-04-07T11:30:15;99947.31;;;8.52;100.00
56671;BME280;42545;50.054;8.306;2023-04-07T11:32:47;99949.34;;;8.63;100.00
56671;BME280;42545;50.054;8.306;2023-04-07T11:35:14;99951.19;;;8.68;100.00
56671;BME280;42545;50.054;8.306;2023-04-07T11:37:43;99951.31;;;8.74;100.00
56671;BME280;42545;50.054;8.306;2023-04-07T11:40:10;99951.47;;;8.81;100.00
56671;BME280;42545;50.054;8.306;2023-04-07T11:42:39;99955.97;;;8.85;100.00
56671;BME280;42545;50.054;8.306;2023-04-07T11:45:15;99949.81;;;8.87;100.00
56671;BME280;42545;50.054;8.306;2023-04-07T11:47:42;99954.31;;;8.92;100.00
56671;BME280;42545;50.054;8.306;2023-04-07T11:50:09;99958.75;;;8.93;100.00
56671;BME280;42545;50.054;8.306;2023-04-07T11:52:44;99962.31;;;8.95;100.00
56671;BME280;42545;50.054;8.306;2023-04-07T11:55:17;99951.66;;;8.89;100.00
56671;BME280;42545;50.054;8.306;2023-04-07T11:57:46;99961.38;;;8.93;100.00
56671;BME280;42545;50.054;8.306;2023-04-07T12:00:13;99963.94;;;8.90;100.00
56671;BME280;42545;50.054;8.306;2023-04-07T12:02:41;99967.41;;;8.88;100.00
56671;BME280;42545;50.054;8.306;2023-04-07T12:05:08;99969.16;;;8.89;100.00
56671;BME280;42545;50.054;8.306;2023-04-07T12:07:35;99972.66;;;8.88;100.00
56671;BME280;42545;50.054;8.306;2023-04-07T12:12:57;99968.25;;;8.87;100.00
56671;BME280;42545;50.054;8.306;2023-04-07T12:15:26;99963.91;;;8.87;100.00
56671;BME280;42545;50.054;8.306;2023-04-07T12:17:53;99969.06;;;8.84;100.00
56671;BME280;42545;50.054;8.306;2023-04-07T12:20:20;99970.88;;;8.87;100.00
56671;BME280;42545;50.054;8.306;2023-04-07T12:22:47;99976.19;;;8.88;100.00
56671;BME280;42545;50.054;8.306;2023-04-07T12:25:13;99973.50;;;8.87;100.00
56671;BME280;42545;50.054;8.306;2023-04-07T12:27:40;99977.88;;;8.86;100.00
56671;BME280;42545;50.054;8.306;2023-04-07T12:30:09;99977.81;;;8.83;100.00
56671;BME280;42545;50.054;8.306;2023-04-07T12:32:36;99967.97;;;8.73;100.00
56671;BME280;42545;50.054;8.306;2023-04-07T12:35:04;99984.81;;;8.82;100.00
56671;BME280;42545;50.054;8.306;2023-04-07T12:37:30;99989.25;;;8.85;100.00
56671;BME280;42545;50.054;8.306;2023-04-07T12:39:57;99987.53;;;8.85;100.00
56671;BME280;42545;50.054;8.306;2023-04-07T12:42:24;99979.56;;;8.82;100.00
56671;BME280;42545;50.054;8.306;2023-04-07T12:44:51;99991.09;;;8.88;100.00
56671;BME280;42545;50.054;8.306;2023-04-07T12:47:19;99983.13;;;8.84;100.00
56671;BME280;42545;50.054;8.306;2023-04-07T12:49:46;99988.38;;;8.84;100.00
56671;BME280;42545;50.054;8.306;2023-04-07T12:52:13;99993.63;;;8.84;100.00
56671;BME280;42545;50.054;8.306;2023-04-07T12:54:39;99998.81;;;8.80;100.00
56671;BME280;42545;50.054;8.306;2023-04-07T12:57:07;100003.16;;;8.79;100.00
56671;BME280;42545;50.054;8.306;2023-04-07T12:59:34;99999.63;;;8.77;100.00
56671;BME280;42545;50.054;8.306;2023-04-07T13:02:01;100013.63;;;8.76;100.00
56671;BME280;42545;50.054;8.306;2023-04-07T13:04:30;99999.53;;;8.74;100.00
56671;BME280;42545;50.054;8.306;2023-04-07T13:06:59;100001.19;;;8.69;100.00
56671;BME280;42545;50.054;8.306;2023-04-07T13:09:27;100000.16;;;8.62;100.00